Time;durP1;ratioP1;P1;durP2;ratioP2;P2;SDS_P1;SDS_P2;PMS_P1;PMS_P2;Temp;Humidity;BMP_temperature;BMP_pressure;BME280_temperature;BME280_humidity;BME280_pressure;Samples;Min_cycle;Max_cycle;Signal;HPM_P1;HPM_P2
2023/04/10 00:00:07;;;;;;;56.38;39.83;;;7.10;99.90;;;;;;5086870;28;20040;-80
2023/04/10 00:02:32;;;;;;;54.47;38.53;;;7.10;99.90;;;;;;5085271;28;20032;-80
2023/04/10 00:04:59;;;;;;;52.10;38.35;;;7.10;99.90;;;;;;5066266;28;20044;-79
2023/04/10 00:07:25;;;;;;;51.13;37.33;;;7.10;99.90;;;;;;5069110;28;20120;-79
2023/04/10 00:09:51;;;;;;;53.40;39.47;;;7.10;99.90;;;;;;5066956;28;20122;-80
2023/04/10 00:12:16;;;;;;;57.08;39.33;;;7.00;99.90;;;;;;5078032;28;20035;-80
2023/04/10 00:14:42;;;;;;;55.08;39.05;;;7.00;99.90;;;;;;5084561;28;20112;-80
2023/04/10 00:17:07;;;;;;;51.90;36.97;;;7.00;99.90;;;;;;5062691;28;20040;-80
2023/04/10 00:19:33;;;;;;;55.50;38.42;;;6.90;99.90;;;;;;5086712;28;20044;-79
2023/04/10 00:21:59;;;;;;;53.40;37.65;;;6.90;99.90;;;;;;5049235;28;20096;-80
2023/04/10 00:24:25;;;;;;;52.38;38.72;;;6.90;99.90;;;;;;5065415;28;20044;-80
2023/04/10 00:26:50;;;;;;;55.55;39.25;;;6.80;99.90;;;;;;5069282;28;20387;-80
2023/04/10 00:29:16;;;;;;;59.50;40.03;;;6.80;99.90;;;;;;5084265;28;20130;-79
2023/04/10 00:31:42;;;;;;;56.20;40.08;;;6.80;99.90;;;;;;5086581;28;20117;-81
2023/04/10 00:34:07;;;;;;;58.22;43.17;;;6.80;99.90;;;;;;5066133;28;20514;-80
2023/04/10 00:36:34;;;;;;;57.28;40.28;;;6.80;99.90;;;;;;5081539;28;20047;-80
2023/04/10 00:39:00;;;;;;;54.63;38.97;;;6.70;99.90;;;;;;5063410;28;20520;-80
2023/04/10 00:41:26;;;;;;;58.85;40.97;;;6.70;99.90;;;;;;5050020;28;20044;-80
2023/04/10 00:43:56;;;;;;;59.03;43.20;;;6.60;99.90;;;;;;5065983;28;20050;-80
2023/04/10 00:46:24;;;;;;;59.63;41.95;;;6.60;99.90;;;;;;5067554;28;20529;-80
2023/04/10 00:48:51;;;;;;;59.17;41.53;;;6.60;99.90;;;;;;5086041;28;20106;-80
2023/04/10 00:51:19;;;;;;;64.10;45.15;;;6.50;99.90;;;;;;5066024;28;20060;-80
2023/04/10 00:53:53;;;;;;;65.55;46.30;;;6.50;99.90;;;;;;5087040;28;20490;-80
2023/04/10 00:56:20;;;;;;;59.95;42.63;;;6.50;99.90;;;;;;5067622;28;20521;-80
2023/04/10 00:58:46;;;;;;;62.65;43.67;;;6.40;99.90;;;;;;5051848;28;20147;-80
2023/04/10 01:01:12;;;;;;;63.03;46.42;;;6.40;99.90;;;;;;5067746;28;20055;-80
2023/04/10 01:03:39;;;;;;;66.32;46.47;;;6.40;99.90;;;;;;5065324;28;20039;-80
2023/04/10 01:06:05;;;;;;;64.47;46.33;;;6.30;99.90;;;;;;5044021;28;20335;-80
2023/04/10 01:08:44;;;;;;;65.57;47.60;;;6.30;99.90;;;;;;5068223;28;20099;-80
2023/04/10 01:11:17;;;;;;;67.22;49.28;;;6.30;99.90;;;;;;5066536;28;20057;-80
2023/04/10 01:13:49;;;;;;;70.60;50.53;;;6.20;99.90;;;;;;5064510;28;20040;-80
2023/04/10 01:16:33;;;;;;;69.22;51.22;;;6.20;99.90;;;;;;5084006;28;20131;-80
2023/04/10 01:19:16;;;;;;;70.57;50.50;;;6.20;99.90;;;;;;5065706;28;20083;-80
2023/04/10 01:21:42;;;;;;;;;;;6.20;99.90;;;;;;5066858;28;20044;-80
2023/04/10 01:24:17;;;;;;;72.45;49.85;;;6.20;99.90;;;;;;5086210;28;19923;-80
2023/04/10 01:27:11;;;;;;;73.40;50.70;;;6.20;99.90;;;;;;5055199;28;20040;-80
2023/04/10 01:29:42;;;;;;;69.63;51.63;;;6.20;99.90;;;;;;5032380;28;20045;-80
2023/04/10 01:32:13;;;;;;;75.07;54.38;;;6.20;99.90;;;;;;5082211;28;20102;-80
2023/04/10 01:34:44;;;;;;;76.20;52.72;;;6.20;99.90;;;;;;5087287;28;20051;-80
2023/04/10 01:37:17;;;;;;;73.78;54.03;;;6.20;99.90;;;;;;5060311;28;20462;-80
2023/04/10 01:39:42;;;;;;;;;;;6.20;99.90;;;;;;5064080;28;20049;-81
2023/04/10 01:42:10;;;;;;;72.57;52.65;;;6.10;99.90;;;;;;5049867;28;19931;-80
2023/04/10 01:44:39;;;;;;;74.97;56.25;;;6.10;99.90;;;;;;5069887;28;20052;-81
2023/04/10 01:47:06;;;;;;;79.20;55.67;;;6.10;99.90;;;;;;5068748;28;20090;-81
2023/04/10 01:49:33;;;;;;;77.63;54.50;;;6.10;99.90;;;;;;5090042;28;20044;-80
2023/04/10 01:51:59;;;;;;;75.28;54.40;;;6.00;99.90;;;;;;5089307;28;20413;-80
2023/04/10 01:54:30;;;;;;;79.97;57.50;;;6.00;99.90;;;;;;5068973;28;20048;-80
2023/04/10 01:56:58;;;;;;;80.47;57.50;;;6.00;99.90;;;;;;5089755;28;20048;-81
2023/04/10 01:59:23;;;;;;;79.57;58.10;;;6.00;99.90;;;;;;5054289;28;20044;-80
2023/04/10 02:01:55;;;;;;;81.38;59.13;;;6.00;99.90;;;;;;5088434;28;20075;-80
2023/04/10 02:04:21;;;;;;;80.75;58.95;;;6.00;99.90;;;;;;5071195;28;20044;-80
2023/04/10 02:06:58;;;;;;;79.80;57.25;;;6.00;99.90;;;;;;5069701;28;20418;-81
2023/04/10 02:09:49;;;;;;;82.97;59.20;;;6.00;99.90;;;;;;5054234;28;20044;-80
2023/04/10 02:12:25;;;;;;;82.07;58.20;;;6.00;99.90;;;;;;5069316;28;20036;-81
2023/04/10 02:14:52;;;;;;;81.15;57.42;;;6.00;99.90;;;;;;5070651;28;20043;-80
2023/04/10 02:17:26;;;;;;;79.78;57.70;;;5.90;99.90;;;;;;5068406;28;20581;-80
2023/04/10 02:19:53;;;;;;;82.00;58.38;;;5.90;99.90;;;;;;5070682;28;20093;-80
2023/04/10 02:22:19;;;;;;;82.65;56.88;;;5.90;99.90;;;;;;5067964;28;20048;-81
2023/04/10 02:24:45;;;;;;;76.07;57.05;;;5.90;99.90;;;;;;5069135;28;20044;-81
2023/04/10 02:27:11;;;;;;;83.53;57.25;;;5.90;99.90;;;;;;5071522;28;20071;-81
2023/04/10 02:29:36;;;;;;;83.30;57.60;;;6.00;99.90;;;;;;5069982;28;20789;-80
2023/04/10 02:32:03;;;;;;;80.05;56.20;;;5.90;99.90;;;;;;5088906;28;20517;-81
2023/04/10 02:34:28;;;;;;;74.80;54.13;;;6.00;99.90;;;;;;5080620;28;20097;-81
2023/04/10 02:36:54;;;;;;;71.03;52.60;;;6.00;99.90;;;;;;5070872;28;20052;-81
2023/04/10 02:39:20;;;;;;;74.57;53.97;;;6.00;99.90;;;;;;5068993;28;20053;-80
2023/04/10 02:41:45;;;;;;;77.05;55.88;;;6.00;99.90;;;;;;5068240;28;20086;-81
2023/04/10 02:44:12;;;;;;;78.00;55.55;;;6.00;99.90;;;;;;5068787;28;20048;-80
2023/04/10 02:46:37;;;;;;;81.45;54.72;;;6.60;99.90;;;;;;5066500;28;20567;-80
2023/04/10 02:49:05;;;;;;;76.35;56.00;;;6.00;99.90;;;;;;5067738;28;20082;-80
2023/04/10 02:51:35;;;;;;;80.35;56.88;;;6.00;99.90;;;;;;5088591;28;20048;-80
2023/04/10 02:54:00;;;;;;;74.40;53.67;;;6.00;99.90;;;;;;5086572;28;20509;-80
2023/04/10 02:56:26;;;;;;;84.40;56.08;;;6.00;99.90;;;;;;5058217;28;20524;-80
2023/04/10 02:58:51;;;;;;;75.93;54.63;;;6.00;99.90;;;;;;5067934;28;20040;-80
2023/04/10 03:01:17;;;;;;;71.60;53.78;;;6.00;99.90;;;;;;5087576;28;20127;-80
2023/04/10 03:03:43;;;;;;;74.20;55.83;;;5.90;99.90;;;;;;5068278;28;20174;-80
2023/04/10 03:06:09;;;;;;;78.80;55.90;;;6.00;99.90;;;;;;5085941;28;20119;-81
2023/04/10 03:08:35;;;;;;;77.28;56.40;;;6.00;99.90;;;;;;5085259;28;20050;-80
2023/04/10 03:11:01;;;;;;;81.80;57.67;;;5.90;99.90;;;;;;5069471;28;20044;-81
2023/04/10 03:13:26;;;;;;;78.22;57.65;;;5.90;99.90;;;;;;5087684;28;20048;-80
2023/04/10 03:15:52;;;;;;;79.50;59.25;;;5.90;99.90;;;;;;5085282;28;20036;-80
2023/04/10 03:18:17;;;;;;;79.57;56.60;;;5.90;99.90;;;;;;5088064;28;20056;-80
2023/04/10 03:20:43;;;;;;;81.25;59.42;;;5.90;99.90;;;;;;5064184;28;20128;-80
2023/04/10 03:23:09;;;;;;;78.78;56.95;;;5.90;99.90;;;;;;5057714;28;20048;-80
2023/04/10 03:25:35;;;;;;;80.65;59.92;;;5.80;99.90;;;;;;5087171;28;20048;-81
2023/04/10 03:28:01;;;;;;;77.80;57.05;;;5.80;99.90;;;;;;5051938;28;20059;-80
2023/04/10 03:30:27;;;;;;;82.38;59.22;;;5.70;99.90;;;;;;5086334;28;20039;-81
2023/04/10 03:32:52;;;;;;;84.20;60.17;;;5.70;99.90;;;;;;5087193;28;20043;-81
2023/04/10 03:35:18;;;;;;;79.03;59.78;;;5.70;99.90;;;;;;5049976;28;20083;-81
2023/04/10 03:37:44;;;;;;;82.40;58.72;;;5.70;99.90;;;;;;5086573;28;20060;-81
2023/04/10 03:40:10;;;;;;;82.35;58.63;;;5.60;99.90;;;;;;5067420;28;20490;-81
2023/04/10 03:42:36;;;;;;;79.85;58.20;;;5.60;99.90;;;;;;5086910;28;20150;-81
2023/04/10 03:45:03;;;;;;;79.13;57.78;;;5.60;99.90;;;;;;5067187;28;20178;-81
2023/04/10 03:47:30;;;;;;;77.40;57.20;;;5.60;99.90;;;;;;5065737;28;20062;-81
2023/04/10 03:49:56;;;;;;;81.05;56.88;;;5.50;99.90;;;;;;5054940;28;20386;-79
2023/04/10 03:52:21;;;;;;;83.30;60.03;;;5.60;99.90;;;;;;5056810;28;20048;-81
2023/04/10 03:54:47;;;;;;;79.97;58.70;;;5.50;99.90;;;;;;5068261;28;20122;-81
2023/04/10 03:57:12;;;;;;;75.80;56.65;;;5.50;99.90;;;;;;5067705;28;20043;-81
2023/04/10 03:59:38;;;;;;;78.50;58.22;;;5.50;99.90;;;;;;5067837;28;20044;-81
2023/04/10 04:02:05;;;;;;;76.13;57.30;;;5.50;99.90;;;;;;5087155;28;20048;-81
2023/04/10 04:04:31;;;;;;;83.70;60.08;;;5.50;99.90;;;;;;5085800;28;20087;-81
2023/04/10 04:06:56;;;;;;;84.30;58.80;;;5.40;99.90;;;;;;5087843;28;20123;-81
2023/04/10 04:09:22;;;;;;;82.68;59.03;;;5.40;99.90;;;;;;5061505;28;20048;-81
2023/04/10 04:11:47;;;;;;;78.35;57.10;;;5.40;99.90;;;;;;5084404;28;20058;-80
2023/04/10 04:14:13;;;;;;;80.95;58.80;;;5.40;99.90;;;;;;5050934;28;20086;-80
2023/04/10 04:16:38;;;;;;;81.88;58.40;;;5.40;99.90;;;;;;5068181;28;20085;-80
2023/04/10 04:19:04;;;;;;;82.97;59.25;;;5.40;99.90;;;;;;5065225;28;20402;-80
2023/04/10 04:21:30;;;;;;;78.78;55.75;;;5.40;99.90;;;;;;5052350;28;20089;-80
2023/04/10 04:23:56;;;;;;;84.18;59.60;;;5.40;99.90;;;;;;5067032;28;20040;-80
2023/04/10 04:26:23;;;;;;;83.78;57.95;;;5.50;99.90;;;;;;5069540;28;20048;-80
2023/04/10 04:28:49;;;;;;;85.32;59.53;;;5.90;99.90;;;;;;5067231;28;20473;-80
2023/04/10 04:31:15;;;;;;;86.18;60.17;;;5.50;99.90;;;;;;5065726;28;20044;-81
2023/04/10 04:33:41;;;;;;;83.47;58.90;;;5.50;99.90;;;;;;5086901;28;20567;-80
2023/04/10 04:36:06;;;;;;;79.25;56.80;;;5.50;99.90;;;;;;5069649;28;20067;-81
2023/04/10 04:38:32;;;;;;;84.15;58.70;;;5.60;99.90;;;;;;5063576;28;20506;-81
2023/04/10 04:40:58;;;;;;;79.50;56.45;;;5.60;99.90;;;;;;5064383;28;20058;-80
2023/04/10 04:43:23;;;;;;;80.13;57.03;;;5.70;99.90;;;;;;5053600;28;20411;-81
2023/04/10 04:45:49;;;;;;;88.20;61.88;;;5.60;99.90;;;;;;5058312;28;20056;-80
2023/04/10 04:48:14;;;;;;;86.93;59.95;;;5.70;99.90;;;;;;5066778;28;20032;-81
2023/04/10 04:50:41;;;;;;;80.68;59.78;;;5.80;99.90;;;;;;5066167;28;20813;-81
2023/04/10 04:53:08;;;;;;;83.40;59.13;;;5.80;99.90;;;;;;5064785;28;20075;-81
2023/04/10 04:55:34;;;;;;;81.85;58.45;;;5.80;99.90;;;;;;5062642;28;20079;-80
2023/04/10 04:58:02;;;;;;;79.57;56.70;;;5.90;99.90;;;;;;5049408;28;20101;-80
2023/04/10 05:00:28;;;;;;;78.47;56.30;;;5.90;99.90;;;;;;5063984;28;20052;-80
2023/04/10 05:02:54;;;;;;;82.38;57.20;;;5.90;99.90;;;;;;5063620;28;20059;-80
2023/04/10 05:05:19;;;;;;;72.50;53.17;;;5.90;99.90;;;;;;5062718;28;20437;-80
2023/04/10 05:07:45;;;;;;;76.45;55.92;;;6.00;99.90;;;;;;5065669;28;20101;-80
2023/04/10 05:10:11;;;;;;;80.03;55.75;;;6.00;99.90;;;;;;5046590;28;20037;-80
2023/04/10 05:12:36;;;;;;;79.57;55.30;;;6.00;99.90;;;;;;5046264;28;20121;-80
2023/04/10 05:15:02;;;;;;;73.05;54.63;;;6.00;99.90;;;;;;5061151;28;20119;-80
2023/04/10 05:17:28;;;;;;;75.15;54.75;;;6.10;99.90;;;;;;5063417;28;20153;-80
2023/04/10 05:19:54;;;;;;;75.57;55.25;;;6.10;99.90;;;;;;5067263;28;20961;-80
2023/04/10 05:22:19;;;;;;;75.22;52.95;;;6.20;99.90;;;;;;5048067;28;20422;-80
2023/04/10 05:24:45;;;;;;;74.20;52.58;;;6.10;99.90;;;;;;5067111;28;20047;-80
2023/04/10 05:27:11;;;;;;;76.68;52.17;;;6.10;99.90;;;;;;5066101;28;20359;-80
2023/04/10 05:29:36;;;;;;;73.97;50.90;;;6.10;99.90;;;;;;5069031;28;20362;-80
2023/04/10 05:32:02;;;;;;;68.97;48.92;;;6.20;99.90;;;;;;5067452;28;20055;-80
2023/04/10 05:34:27;;;;;;;70.80;49.65;;;6.20;99.90;;;;;;5067682;28;20036;-81
2023/04/10 05:36:53;;;;;;;69.50;50.28;;;6.30;99.90;;;;;;5068153;28;20052;-80
2023/04/10 05:39:19;;;;;;;70.15;49.42;;;6.30;99.90;;;;;;5081984;28;20052;-80
2023/04/10 05:41:44;;;;;;;74.82;51.45;;;6.30;99.90;;;;;;5072902;28;20502;-81
2023/04/10 05:44:10;;;;;;;70.72;50.17;;;6.40;99.90;;;;;;5072786;28;20394;-80
2023/04/10 05:46:35;;;;;;;71.30;50.55;;;6.40;99.90;;;;;;5072025;28;20060;-80
2023/04/10 05:49:01;;;;;;;72.15;52.03;;;6.50;99.90;;;;;;5088258;28;20094;-80
2023/04/10 05:51:27;;;;;;;72.97;51.03;;;6.60;99.90;;;;;;5055874;28;20051;-80
2023/04/10 05:53:53;;;;;;;73.60;51.72;;;6.70;99.90;;;;;;5072386;28;20052;-79
2023/04/10 05:56:18;;;;;;;72.25;51.20;;;6.70;99.90;;;;;;5090905;28;20036;-80
2023/04/10 05:58:44;;;;;;;70.65;50.90;;;6.70;99.90;;;;;;5053600;28;20036;-81
2023/04/10 06:01:10;;;;;;;73.83;50.57;;;6.70;99.90;;;;;;5071375;28;20048;-81
2023/04/10 06:03:35;;;;;;;74.07;50.75;;;6.80;99.90;;;;;;5071872;28;20597;-81
2023/04/10 06:06:01;;;;;;;71.70;51.05;;;6.80;99.90;;;;;;5071579;28;20471;-81
2023/04/10 06:08:27;;;;;;;70.30;49.97;;;6.90;99.90;;;;;;5072382;28;20046;-80
2023/04/10 06:10:53;;;;;;;66.63;46.80;;;6.90;99.90;;;;;;5072070;28;20410;-81
2023/04/10 06:13:18;;;;;;;70.85;48.72;;;7.00;99.90;;;;;;5071759;28;20052;-81
2023/04/10 06:15:44;;;;;;;67.80;46.88;;;7.10;99.90;;;;;;5054166;28;20044;-81
2023/04/10 06:18:10;;;;;;;66.07;47.53;;;6.80;99.90;;;;;;5076645;28;20044;-81
2023/04/10 06:20:35;;;;;;;69.35;48.83;;;7.20;99.90;;;;;;5071387;28;20055;-81
2023/04/10 06:23:01;;;;;;;66.38;46.78;;;7.40;99.90;;;;;;5069812;28;20048;-81
2023/04/10 06:25:27;;;;;;;62.35;46.00;;;7.50;99.90;;;;;;5071564;28;20578;-81
2023/04/10 06:27:53;;;;;;;58.95;43.58;;;7.50;99.90;;;;;;5071213;28;20119;-81
2023/04/10 06:30:18;;;;;;;66.10;45.88;;;7.70;99.90;;;;;;5068829;28;20044;-81
2023/04/10 06:32:44;;;;;;;67.25;45.40;;;7.80;99.90;;;;;;5070680;28;20413;-81
2023/04/10 06:35:10;;;;;;;65.00;44.92;;;7.80;99.90;;;;;;5071402;28;20048;-82
2023/04/10 06:37:36;;;;;;;60.08;41.63;;;7.90;99.90;;;;;;5052966;28;20052;-81
2023/04/10 06:40:07;;;;;;;64.60;45.17;;;8.00;99.90;;;;;;5070800;28;20051;-80
2023/04/10 06:42:33;;;;;;;58.90;42.20;;;8.10;99.90;;;;;;5071738;28;20517;-80
2023/04/10 06:44:59;;;;;;;63.60;43.53;;;8.10;99.90;;;;;;5071599;28;20039;-82
2023/04/10 06:47:25;;;;;;;60.53;41.80;;;8.20;99.90;;;;;;5071246;28;20510;-82
2023/04/10 06:49:51;;;;;;;60.70;42.85;;;8.30;99.90;;;;;;5070830;28;20040;-82
2023/04/10 06:52:16;;;;;;;62.00;42.25;;;8.30;99.90;;;;;;5070354;28;20048;-82
2023/04/10 06:54:42;;;;;;;60.35;41.20;;;8.40;99.90;;;;;;5071440;28;20115;-82
2023/04/10 06:57:08;;;;;;;54.85;40.90;;;8.50;99.90;;;;;;5071596;28;20119;-81
2023/04/10 06:59:34;;;;;;;56.30;39.70;;;8.50;99.90;;;;;;5070396;28;20512;-82
2023/04/10 07:02:01;;;;;;;56.50;40.70;;;8.60;99.90;;;;;;5053700;28;20040;-81
2023/04/10 07:04:27;;;;;;;57.92;41.50;;;8.60;99.90;;;;;;5071116;28;20048;-83
2023/04/10 07:06:53;;;;;;;55.78;39.55;;;8.70;99.90;;;;;;5070687;28;20394;-82
2023/04/10 07:09:18;;;;;;;57.22;39.72;;;8.70;99.90;;;;;;5069575;28;20802;-83
2023/04/10 07:11:44;;;;;;;55.65;40.53;;;8.70;99.90;;;;;;5054777;28;20054;-83
2023/04/10 07:14:10;;;;;;;56.22;38.67;;;8.70;99.90;;;;;;5070678;28;20036;-83
2023/04/10 07:16:36;;;;;;;58.00;39.15;;;8.80;99.90;;;;;;5070520;28;20048;-82
2023/04/10 07:19:02;;;;;;;56.55;38.85;;;8.90;99.90;;;;;;5053798;28;20070;-83
2023/04/10 07:21:28;;;;;;;55.53;38.35;;;9.00;99.90;;;;;;5087610;28;20036;-83
2023/04/10 07:23:54;;;;;;;55.60;39.58;;;9.20;99.90;;;;;;5070495;28;20511;-83
2023/04/10 07:26:19;;;;;;;55.83;38.83;;;9.30;99.90;;;;;;5069792;28;20628;-82
2023/04/10 07:28:45;;;;;;;53.42;38.38;;;9.40;99.90;;;;;;5070804;28;20083;-83
2023/04/10 07:31:12;;;;;;;50.78;36.88;;;9.50;99.90;;;;;;5069308;28;20097;-83
2023/04/10 07:33:38;;;;;;;49.42;35.85;;;9.60;99.90;;;;;;5070061;28;20408;-82
2023/04/10 07:36:07;;;;;;;49.40;35.55;;;9.70;99.90;;;;;;5069864;28;20127;-82
2023/04/10 07:38:32;;;;;;;49.70;34.30;;;9.80;99.90;;;;;;5046749;28;20064;-81
2023/04/10 07:40:58;;;;;;;48.63;34.55;;;9.90;99.90;;;;;;5054598;28;20048;-81
2023/04/10 07:43:24;;;;;;;49.45;35.17;;;10.10;99.90;;;;;;5066360;28;20133;-81
2023/04/10 07:45:55;;;;;;;48.95;34.05;;;10.20;99.90;;;;;;5067090;28;20141;-81
2023/04/10 07:48:20;;;;;;;46.65;32.40;;;10.40;99.90;;;;;;5066087;28;20053;-82
2023/04/10 07:50:49;;;;;;;43.42;32.83;;;10.50;99.90;;;;;;5066548;28;20040;-81
2023/04/10 07:53:14;;;;;;;42.83;31.58;;;10.60;99.90;;;;;;5065456;28;20043;-81
2023/04/10 07:55:47;;;;;;;45.78;31.25;;;10.80;99.90;;;;;;5068182;28;20128;-81
2023/04/10 07:58:13;;;;;;;40.58;29.98;;;11.00;99.90;;;;;;5066685;28;20131;-81
2023/04/10 08:00:38;;;;;;;40.45;28.48;;;11.30;99.90;;;;;;5066837;28;20045;-80
2023/04/10 08:03:05;;;;;;;39.60;29.63;;;11.40;99.90;;;;;;5065875;28;20040;-81
2023/04/10 08:05:30;;;;;;;36.88;27.27;;;11.60;99.90;;;;;;5067084;28;20048;-82
2023/04/10 08:07:56;;;;;;;36.40;27.77;;;11.80;99.90;;;;;;5066789;28;20044;-81
2023/04/10 08:10:22;;;;;;;35.55;26.10;;;12.00;99.90;;;;;;5065650;28;20067;-83
2023/04/10 08:12:47;;;;;;;32.05;23.88;;;12.20;99.90;;;;;;5067210;28;20051;-82
2023/04/10 08:15:13;;;;;;;31.30;23.38;;;12.40;99.90;;;;;;5066415;28;20811;-82
2023/04/10 08:17:39;;;;;;;32.17;23.40;;;12.70;99.90;;;;;;5067725;28;20041;-82
2023/04/10 08:20:05;;;;;;;31.33;23.20;;;12.70;99.90;;;;;;5049385;28;20051;-82
2023/04/10 08:22:31;;;;;;;31.02;22.70;;;12.90;99.90;;;;;;5067672;28;20041;-82
2023/04/10 08:24:56;;;;;;;29.90;23.63;;;13.10;99.90;;;;;;5067345;28;20036;-82
2023/04/10 08:27:22;;;;;;;27.80;21.25;;;13.30;99.90;;;;;;5067295;28;20040;-82
2023/04/10 08:29:47;;;;;;;25.70;18.00;;;13.40;99.90;;;;;;5066758;28;20036;-82
2023/04/10 08:32:13;;;;;;;23.83;18.23;;;13.60;99.90;;;;;;5067611;28;20084;-82
2023/04/10 08:34:39;;;;;;;23.88;16.90;;;13.60;99.10;;;;;;5067418;28;20071;-82
2023/04/10 08:37:11;;;;;;;19.83;16.63;;;13.70;98.30;;;;;;5066913;28;20048;-82
2023/04/10 08:39:37;;;;;;;21.73;16.83;;;13.70;97.10;;;;;;5084373;28;20518;-81
2023/04/10 08:42:02;;;;;;;24.73;17.05;;;13.70;97.40;;;;;;5086324;28;20131;-81
2023/04/10 08:44:29;;;;;;;19.08;14.32;;;13.70;96.60;;;;;;5066249;28;20032;-81
2023/04/10 08:46:58;;;;;;;20.05;16.05;;;13.80;95.40;;;;;;5051469;28;20040;-81
2023/04/10 08:49:39;;;;;;;17.05;14.00;;;14.10;96.10;;;;;;5069419;28;20071;-82
2023/04/10 08:52:11;;;;;;;20.30;15.10;;;13.90;93.70;;;;;;5070537;28;21088;-81
2023/04/10 08:54:37;;;;;;;18.13;15.55;;;13.90;94.70;;;;;;5070497;28;20566;-81
2023/04/10 08:57:06;;;;;;;19.10;15.38;;;14.00;94.90;;;;;;5092166;28;20504;-82
2023/04/10 08:59:32;;;;;;;16.95;14.40;;;14.10;93.90;;;;;;5087542;28;20051;-81
2023/04/10 09:01:58;;;;;;;16.70;13.82;;;14.10;93.90;;;;;;5072885;28;20044;-81
2023/04/10 09:04:25;;;;;;;16.98;13.25;;;14.50;93.60;;;;;;5072369;28;20040;-81
2023/04/10 09:06:53;;;;;;;17.55;14.13;;;14.40;92.80;;;;;;5090310;28;20131;-82
2023/04/10 09:09:19;;;;;;;17.65;13.95;;;14.50;90.40;;;;;;5053831;28;20076;-80
2023/04/10 09:11:51;;;;;;;16.90;13.25;;;14.50;91.50;;;;;;5089099;28;20082;-82
2023/04/10 09:14:20;;;;;;;16.00;13.33;;;14.50;87.20;;;;;;5090146;28;20553;-81
2023/04/10 09:16:46;;;;;;;15.15;12.50;;;14.70;90.50;;;;;;5091753;28;20802;-81
2023/04/10 09:19:12;;;;;;;15.95;12.70;;;14.60;87.60;;;;;;5052012;28;20041;-82
2023/04/10 09:21:37;;;;;;;14.40;11.88;;;14.70;87.90;;;;;;5077666;28;20086;-81
2023/04/10 09:24:04;;;;;;;17.30;11.95;;;14.80;87.00;;;;;;5091067;28;20043;-81
2023/04/10 09:26:33;;;;;;;13.15;11.10;;;14.90;87.60;;;;;;5089023;28;20077;-81
2023/04/10 09:29:06;;;;;;;14.32;11.25;;;15.10;86.50;;;;;;5089407;28;20538;-82
2023/04/10 09:31:36;;;;;;;13.57;10.95;;;15.40;86.70;;;;;;5069966;28;20039;-81
2023/04/10 09:34:16;;;;;;;14.32;11.30;;;15.40;84.00;;;;;;5091680;28;20431;-81
2023/04/10 09:36:53;;;;;;;13.43;10.95;;;15.10;74.80;;;;;;5056121;28;20488;-82
2023/04/10 09:39:19;;;;;;;14.50;12.18;;;15.40;81.10;;;;;;5070124;28;20468;-80
2023/04/10 09:41:53;;;;;;;13.65;11.60;;;15.40;81.30;;;;;;5090759;28;20090;-80
2023/04/10 09:44:32;;;;;;;13.27;11.25;;;15.30;81.60;;;;;;5054511;28;20040;-79
2023/04/10 09:47:13;;;;;;;15.23;12.13;;;15.30;78.20;;;;;;5072837;28;20152;-80
2023/04/10 09:49:47;;;;;;;13.75;11.18;;;15.30;81.70;;;;;;5090247;28;20478;-80
2023/04/10 09:52:25;;;;;;;13.40;11.07;;;15.50;77.40;;;;;;5088228;28;20040;-80
2023/04/10 09:54:51;;;;;;;13.43;11.10;;;15.30;78.30;;;;;;5072056;28;20113;-80
2023/04/10 09:57:18;;;;;;;13.05;11.07;;;15.20;78.00;;;;;;5089206;28;20445;-80
2023/04/10 09:59:55;;;;;;;11.40;10.20;;;15.20;78.30;;;;;;5067759;28;20060;-79
2023/04/10 10:02:23;;;;;;;12.43;10.55;;;15.20;77.40;;;;;;5070085;28;20040;-81
2023/04/10 10:04:49;;;;;;;15.00;10.32;;;15.40;78.90;;;;;;5069637;28;20467;-81
2023/04/10 10:07:17;;;;;;;25.73;13.68;;;15.50;78.20;;;;;;5051561;28;20044;-81
2023/04/10 10:09:44;;;;;;;12.93;9.85;;;15.50;77.00;;;;;;5051135;28;20056;-82
2023/04/10 10:12:20;;;;;;;12.45;10.40;;;15.70;78.40;;;;;;5052671;28;20053;-83
2023/04/10 10:15:01;;;;;;;11.75;9.43;;;15.80;76.80;;;;;;5038132;28;20124;-83
2023/04/10 10:17:33;;;;;;;11.57;10.38;;;15.90;74.70;;;;;;5061229;28;20203;-83
2023/04/10 10:20:06;;;;;;;11.77;9.90;;;16.10;73.60;;;;;;5069964;28;20055;-82
2023/04/10 10:22:32;;;;;;;11.85;9.55;;;16.20;73.50;;;;;;5069744;28;20104;-81
2023/04/10 10:25:02;;;;;;;10.70;8.75;;;16.20;74.80;;;;;;5088033;28;20123;-82
2023/04/10 10:27:35;;;;;;;8.30;7.40;;;16.40;74.30;;;;;;5071768;28;20047;-83
2023/04/10 10:30:06;;;;;;;8.75;7.85;;;16.20;72.40;;;;;;5054898;28;20123;-82
2023/04/10 10:32:33;;;;;;;9.18;7.85;;;16.20;72.70;;;;;;5049258;28;20056;-83
2023/04/10 10:35:01;;;;;;;9.27;8.00;;;16.20;72.20;;;;;;5088014;28;20139;-83
2023/04/10 10:37:28;;;;;;;9.45;8.13;;;16.40;72.20;;;;;;5070568;28;20040;-82
2023/04/10 10:40:36;;;;;;;8.88;7.57;;;16.50;72.40;;;;;;5090306;28;20044;-83
2023/04/10 10:43:13;;;;;;;8.50;7.50;;;16.20;70.10;;;;;;5089521;28;20040;-81
2023/04/10 10:45:59;;;;;;;10.65;9.55;;;16.20;72.20;;;;;;5071319;28;20048;-81
2023/04/10 10:48:26;;;;;;;8.70;7.80;;;16.30;71.10;;;;;;5066129;28;20071;-82
2023/04/10 10:50:57;;;;;;;7.30;6.60;;;16.30;72.10;;;;;;5089562;28;20462;-82
2023/04/10 10:53:43;;;;;;;8.05;6.90;;;16.30;71.20;;;;;;5070897;28;20056;-82
2023/04/10 10:56:17;;;;;;;7.65;6.80;;;16.30;69.20;;;;;;5090017;28;20045;-82
2023/04/10 10:58:56;;;;;;;10.15;7.82;;;16.30;70.30;;;;;;5089681;28;20043;-83
2023/04/10 11:01:22;;;;;;;9.15;8.13;;;16.40;69.10;;;;;;5071214;28;20119;-83
2023/04/10 11:03:48;;;;;;;10.43;9.38;;;16.40;71.20;;;;;;5070296;28;20110;-83
2023/04/10 11:06:19;;;;;;;7.30;6.60;;;16.30;71.10;;;;;;5070806;28;20662;-82
2023/04/10 11:08:51;;;;;;;8.95;6.10;;;16.30;69.00;;;;;;5088207;28;20562;-82
2023/04/10 11:11:19;;;;;;;7.15;6.45;;;16.30;65.50;;;;;;5087332;28;20075;-82
2023/04/10 11:13:50;;;;;;;7.68;6.75;;;16.30;69.40;;;;;;5070644;28;20387;-83
2023/04/10 11:16:17;;;;;;;11.93;10.73;;;16.30;69.70;;;;;;5087378;28;20044;-80
2023/04/10 11:18:46;;;;;;;8.32;6.35;;;16.40;70.10;;;;;;5070796;28;20089;-80
2023/04/10 11:21:22;;;;;;;8.57;7.78;;;16.40;70.00;;;;;;5070746;28;20708;-81
2023/04/10 11:23:51;;;;;;;5.85;5.25;;;16.50;69.30;;;;;;5088559;28;20048;-80
2023/04/10 11:26:39;;;;;;;7.20;6.47;;;16.60;68.70;;;;;;5069389;28;20052;-80
2023/04/10 11:29:16;;;;;;;11.27;5.68;;;16.60;67.80;;;;;;5070856;28;20040;-80
2023/04/10 11:32:05;;;;;;;10.63;9.30;;;16.60;66.90;;;;;;5088642;28;20185;-81
2023/04/10 11:34:32;;;;;;;6.07;5.47;;;16.60;68.20;;;;;;5041154;28;20522;-80
2023/04/10 11:37:03;;;;;;;6.20;5.45;;;16.60;68.00;;;;;;5144311;27;1221167;-81
2023/04/10 11:39:29;;;;;;;7.10;6.40;;;16.60;67.70;;;;;;5146950;27;20050;-80
2023/04/10 11:41:56;;;;;;;6.05;5.55;;;16.70;67.90;;;;;;5147410;27;20054;-80
2023/04/10 11:44:34;;;;;;;8.07;6.68;;;16.70;67.80;;;;;;5144164;27;20030;-80
2023/04/10 11:46:59;;;;;;;6.00;5.22;;;16.70;65.50;;;;;;5142780;27;20099;-80
2023/04/10 11:49:27;;;;;;;7.40;6.72;;;17.30;67.70;;;;;;5148224;27;20046;-80
2023/04/10 11:51:53;;;;;;;5.22;4.72;;;16.80;67.80;;;;;;5148708;27;20109;-81
2023/04/10 11:54:21;;;;;;;6.32;5.40;;;16.60;67.80;;;;;;5149091;27;20047;-80
2023/04/10 11:57:03;;;;;;;6.18;5.10;;;16.60;67.60;;;;;;5148795;27;20445;-82
2023/04/10 11:59:31;;;;;;;6.45;4.95;;;16.70;65.40;;;;;;5148833;27;20388;-80
2023/04/10 12:02:11;;;;;;;6.03;5.43;;;16.90;68.00;;;;;;5139413;27;20471;-82
2023/04/10 12:04:37;;;;;;;11.88;10.68;;;16.90;65.90;;;;;;5124057;27;20045;-81
2023/04/10 12:07:02;;;;;;;7.35;6.50;;;16.90;65.80;;;;;;5109964;27;20043;-82
2023/04/10 12:09:28;;;;;;;6.00;5.40;;;17.10;66.50;;;;;;5127405;27;20127;-83
2023/04/10 12:12:01;;;;;;;7.22;6.30;;;17.10;65.30;;;;;;5127968;27;20035;-82
2023/04/10 12:14:36;;;;;;;10.57;9.48;;;17.10;64.60;;;;;;5127395;27;20110;-82
2023/04/10 12:17:03;;;;;;;5.60;5.00;;;17.20;65.00;;;;;;5110996;27;20523;-82
2023/04/10 12:19:29;;;;;;;7.70;5.72;;;17.20;66.00;;;;;;5126977;27;20081;-82
2023/04/10 12:21:57;;;;;;;6.35;5.60;;;17.30;66.40;;;;;;5123168;28;20134;-82
2023/04/10 12:24:45;;;;;;;9.32;8.27;;;17.30;65.30;;;;;;5140840;27;20042;-81
2023/04/10 12:27:19;;;;;;;5.13;4.63;;;17.30;65.70;;;;;;5125176;27;20400;-82
2023/04/10 12:29:46;;;;;;;6.45;4.95;;;17.30;65.00;;;;;;5127088;27;20039;-81
2023/04/10 12:32:12;;;;;;;7.03;5.75;;;17.30;64.50;;;;;;5126511;27;20088;-82
2023/04/10 12:34:38;;;;;;;5.60;4.80;;;17.40;65.00;;;;;;5127355;27;20130;-81
2023/04/10 12:37:05;;;;;;;6.60;5.63;;;17.40;65.20;;;;;;5123713;28;20841;-81
2023/04/10 12:39:30;;;;;;;5.72;4.60;;;17.40;65.50;;;;;;5122926;28;20562;-82